AYPY

Port Moresby Jacksons International Airport

Port Moresby, Papua New Guinea
METAR AYPY 161500Z 14010KT 9999 SCT060 27/21 Q1009
Observed Flight Rules
Nov-16 @ 15:00 UTC (an hour ago) Visual Flight Rules
Wind Visibility Clouds
140° at 10 knots 10,000+ meters
  • Scattered at 6,000' AGL
Temperatures Readings
Current 27°C / 81°F
Dewpoint 21°C / 70°F
Humidity 70%
Altimeter 29.79" Hg
Pressure 1009 hPa
Elevation 47
METAR AYPY 161500Z 14010KT 9999 SCT060 27/21 Q1009
Observed Flight Rules
Nov-16 @ 15:00 UTC
(an hour ago)
VFR
Wind Visibility
140° at 10 knots 10,000+ meters
Clouds
  • Scattered at 6,000' AGL
Temperature Dewpoint
27°C / 81°F 21°C / 70°F
Humidity Altimeter Pressure
70% 29.79" Hg 1009 hPa